createdAt,value
2022-09-26T00:01:18.935Z,100292.09
2022-09-26T00:03:51.573Z,100296.34
2022-09-26T00:06:20.315Z,100296.81
2022-09-26T00:08:49.484Z,100291.78
2022-09-26T00:11:20.683Z,100291.41
2022-09-26T00:13:53.038Z,100292.50
2022-09-26T00:16:20.890Z,100288.16
2022-09-26T00:18:49.990Z,100284.09
2022-09-26T00:21:18.322Z,100279.00
2022-09-26T00:23:46.363Z,100284.09
2022-09-26T00:26:18.151Z,100281.09
2022-09-26T00:28:46.386Z,100280.66
2022-09-26T00:31:18.517Z,100275.16
2022-09-26T00:33:47.035Z,100266.94
2022-09-26T00:36:14.706Z,100268.56
2022-09-26T00:38:42.230Z,100267.41
2022-09-26T00:41:09.970Z,100258.41
2022-09-26T00:43:43.650Z,100248.97
2022-09-26T00:46:24.043Z,100246.09
2022-09-26T00:49:02.997Z,100256.53
2022-09-26T00:51:31.848Z,100247.44
2022-09-26T00:53:59.404Z,100246.94
2022-09-26T00:56:34.122Z,100238.16
2022-09-26T00:59:15.717Z,100236.63
2022-09-26T01:01:43.349Z,100239.03
2022-09-26T01:04:12.663Z,100230.91
2022-09-26T01:06:41.518Z,100230.19
2022-09-26T01:09:09.317Z,100226.38
2022-09-26T01:11:37.990Z,100224.41
2022-09-26T01:14:08.727Z,100225.13
2022-09-26T01:16:39.311Z,100215.34
2022-09-26T01:19:18.235Z,100213.66
2022-09-26T01:22:28.259Z,100210.06
2022-09-26T01:25:15.325Z,100203.00
2022-09-26T01:28:00.440Z,100198.69
2022-09-26T01:30:39.870Z,100200.56
2022-09-26T01:33:33.302Z,100202.22
2022-09-26T01:36:38.425Z,100198.31
2022-09-26T01:39:18.113Z,100197.03
2022-09-26T01:42:07.320Z,100198.50
2022-09-26T01:44:41.860Z,100198.31
2022-09-26T01:47:22.115Z,100200.31
2022-09-26T01:49:54.091Z,100202.19
2022-09-26T01:52:45.231Z,100195.16
2022-09-26T01:55:18.051Z,100183.09
2022-09-26T01:58:05.587Z,100178.69
2022-09-26T02:00:37.654Z,100175.22
2022-09-26T02:03:10.955Z,100172.09
2022-09-26T02:05:54.219Z,100168.19
2022-09-26T02:08:54.149Z,100176.31
2022-09-26T02:11:24.702Z,100171.56
2022-09-26T02:14:08.249Z,100169.97
2022-09-26T02:16:46.657Z,100172.31
2022-09-26T02:19:24.165Z,100166.69
2022-09-26T02:21:51.990Z,100161.44
2022-09-26T02:24:19.737Z,100165.38
2022-09-26T02:26:47.262Z,100169.16
2022-09-26T02:29:14.902Z,100170.88
2022-09-26T02:31:50.541Z,100164.50
2022-09-26T02:34:18.994Z,100160.22
2022-09-26T02:36:46.432Z,100161.03
2022-09-26T02:39:13.936Z,100154.44
2022-09-26T02:42:21.688Z,100147.09
2022-09-26T02:45:08.029Z,100140.91
2022-09-26T02:48:02.478Z,100135.50
2022-09-26T02:50:48.676Z,100127.69
2022-09-26T02:53:41.499Z,100124.06
2022-09-26T02:56:30.088Z,100121.31
2022-09-26T02:59:03.450Z,100120.94
2022-09-26T03:01:48.403Z,100131.91
2022-09-26T03:04:41.470Z,100120.66
2022-09-26T03:07:13.846Z,100121.19
2022-09-26T03:09:42.374Z,100131.16
2022-09-26T03:12:10.503Z,100133.91
2022-09-26T03:14:42.240Z,100140.53
2022-09-26T03:17:10.152Z,100129.28
2022-09-26T03:19:45.408Z,100121.31
2022-09-26T03:22:15.990Z,100126.97
2022-09-26T03:24:44.269Z,100122.59
2022-09-26T03:27:14.419Z,100116.47
2022-09-26T03:29:42.025Z,100114.78
2022-09-26T03:32:15.310Z,100117.81
2022-09-26T03:34:43.249Z,100112.38
2022-09-26T03:37:11.378Z,100113.16
2022-09-26T03:39:38.771Z,100103.81
2022-09-26T03:42:11.848Z,100091.50
2022-09-26T03:44:39.653Z,100095.22
2022-09-26T03:47:14.606Z,100099.63
2022-09-26T03:49:44.649Z,100096.09
2022-09-26T03:52:15.815Z,100101.19
2022-09-26T03:54:44.879Z,100090.75
2022-09-26T03:57:13.187Z,100093.88
2022-09-26T03:59:46.990Z,100094.94
2022-09-26T04:02:14.700Z,100096.09
2022-09-26T04:04:45.645Z,100099.00
2022-09-26T04:07:16.050Z,100088.31
2022-09-26T04:09:43.310Z,100086.66
2022-09-26T04:12:11.553Z,100077.06
2022-09-26T04:14:43.470Z,100089.25
2022-09-26T04:17:11.652Z,100079.41
2022-09-26T04:19:42.846Z,100075.78
2022-09-26T04:22:10.271Z,100083.13
2022-09-26T04:24:38.524Z,100082.44
2022-09-26T04:27:08.523Z,100085.25
2022-09-26T04:29:36.159Z,100083.56
2022-09-26T04:32:17.557Z,100081.84
2022-09-26T04:35:05.169Z,100076.25
2022-09-26T04:37:36.974Z,100076.56
2022-09-26T04:40:04.701Z,100071.34
2022-09-26T04:42:36.953Z,100065.72
2022-09-26T04:45:05.463Z,100071.09
2022-09-26T04:47:33.285Z,100072.56
2022-09-26T04:50:29.533Z,100068.63
2022-09-26T04:53:08.145Z,100060.75
2022-09-26T04:56:15.645Z,100063.13
2022-09-26T04:58:44.922Z,100066.22
2022-09-26T05:01:18.316Z,100065.44
2022-09-26T05:03:58.355Z,100060.25
2022-09-26T05:06:27.712Z,100054.34
2022-09-26T05:08:55.210Z,100051.16
2022-09-26T05:11:43.910Z,100047.34
2022-09-26T05:14:13.384Z,100050.53
2022-09-26T05:16:40.875Z,100052.03
2022-09-26T05:19:12.332Z,100058.28
2022-09-26T05:21:48.203Z,100059.75
2022-09-26T05:24:34.232Z,100059.47
2022-09-26T05:27:06.223Z,100058.09
2022-09-26T05:29:33.461Z,100063.47
2022-09-26T05:32:04.584Z,100059.22
2022-09-26T05:34:36.391Z,100063.84
2022-09-26T05:37:04.612Z,100063.31
2022-09-26T05:39:51.605Z,100066.34
2022-09-26T05:42:19.970Z,100084.22
2022-09-26T05:44:47.245Z,100071.13
2022-09-26T05:47:15.711Z,100085.00
2022-09-26T05:49:42.979Z,100086.25
2022-09-26T05:52:14.760Z,100079.97
2022-09-26T05:54:41.978Z,100074.00
2022-09-26T05:57:29.293Z,100070.06
2022-09-26T05:59:56.991Z,100071.69
2022-09-26T06:02:24.328Z,100071.28
2022-09-26T06:05:14.368Z,100058.69
2022-09-26T06:08:04.294Z,100064.69
2022-09-26T06:10:51.795Z,100065.41
2022-09-26T06:13:21.337Z,100061.63
2022-09-26T06:15:50.014Z,100060.13
2022-09-26T06:18:17.573Z,100060.06
2022-09-26T06:20:44.829Z,100058.06
2022-09-26T06:23:13.676Z,100046.03
2022-09-26T06:25:42.654Z,100050.19
2022-09-26T06:28:09.951Z,100037.72
2022-09-26T06:30:37.454Z,100052.84
2022-09-26T06:33:32.582Z,100048.69
2022-09-26T06:36:24.493Z,100056.63
2022-09-26T06:38:53.982Z,100053.34
2022-09-26T06:41:22.037Z,100048.44
2022-09-26T06:43:49.956Z,100058.22
2022-09-26T06:46:47.101Z,100066.47
2022-09-26T06:49:17.963Z,100077.59
2022-09-26T06:51:48.992Z,100090.28
2022-09-26T06:54:17.715Z,100088.13
2022-09-26T06:56:45.726Z,100102.47
2022-09-26T06:59:13.054Z,100106.94
2022-09-26T07:01:49.728Z,100113.63
2022-09-26T07:04:35.946Z,100111.88
2022-09-26T07:07:30.151Z,100109.34
2022-09-26T07:09:58.005Z,100115.19
2022-09-26T07:12:47.230Z,100108.16
2022-09-26T07:15:19.432Z,100108.06
2022-09-26T07:17:50.955Z,100108.56
2022-09-26T07:20:32.093Z,100109.06
2022-09-26T07:23:28.201Z,100102.94
2022-09-26T07:25:55.903Z,100110.28
2022-09-26T07:28:23.214Z,100108.16
2022-09-26T07:30:50.938Z,100109.00
2022-09-26T07:33:47.382Z,100093.31
2022-09-26T07:36:15.943Z,100097.78
2022-09-26T07:38:48.475Z,100094.47
2022-09-26T07:41:17.600Z,100092.88
2022-09-26T07:46:50.763Z,100095.16
2022-09-26T07:49:36.878Z,100093.75
2022-09-26T07:52:09.980Z,100094.38
2022-09-26T07:54:47.538Z,100096.44
2022-09-26T07:57:35.344Z,100083.50
2022-09-26T08:00:24.052Z,100088.56
2022-09-26T08:03:06.078Z,100084.16
2022-09-26T08:05:37.216Z,100085.72
2022-09-26T08:08:04.952Z,100091.56
2022-09-26T08:10:50.978Z,100078.88
2022-09-26T08:13:37.299Z,100083.69
2022-09-26T08:16:23.535Z,100084.03
2022-09-26T08:18:54.957Z,100085.97
2022-09-26T08:21:26.993Z,100078.09
2022-09-26T08:23:57.354Z,100084.16
2022-09-26T08:26:47.116Z,100080.84
2022-09-26T08:29:20.575Z,100081.22
2022-09-26T08:31:51.362Z,100085.81
2022-09-26T08:34:25.379Z,100086.78
2022-09-26T08:37:29.496Z,100084.28
2022-09-26T08:40:15.258Z,100082.69
2022-09-26T08:43:30.414Z,100090.41
2022-09-26T08:46:40.120Z,100086.31
2022-09-26T08:49:42.587Z,100090.06
2022-09-26T08:52:30.823Z,100095.16
2022-09-26T08:55:01.536Z,100095.66
2022-09-26T08:57:43.631Z,100096.47
2022-09-26T09:00:24.848Z,100093.97
2022-09-26T09:03:15.811Z,100085.31
2022-09-26T09:05:59.022Z,100082.50
2022-09-26T09:08:39.701Z,100082.16
2022-09-26T09:12:15.036Z,100087.28
2022-09-26T09:15:26.104Z,100086.25
2022-09-26T09:18:20.733Z,100085.00
2022-09-26T09:21:47.987Z,100085.09
2022-09-26T09:24:29.627Z,100089.44
2022-09-26T09:30:29.720Z,100080.84
2022-09-26T09:33:09.991Z,100076.94
2022-09-26T09:35:56.780Z,100081.03
2022-09-26T09:38:39.028Z,100079.25
2022-09-26T09:41:24.888Z,100082.44
2022-09-26T09:43:56.205Z,100074.63
2022-09-26T09:46:29.213Z,100070.47
2022-09-26T09:49:12.149Z,100064.53
2022-09-26T09:51:52.610Z,100067.50
2022-09-26T09:54:39.105Z,100059.00
2022-09-26T09:57:25.770Z,100054.94
2022-09-26T10:00:10.058Z,100055.38
2022-09-26T10:03:05.074Z,100049.44
2022-09-26T10:05:47.118Z,100045.88
2022-09-26T10:08:33.372Z,100048.28
2022-09-26T10:11:28.231Z,100050.69
2022-09-26T10:14:04.648Z,100042.00
2022-09-26T10:17:08.799Z,100041.25
2022-09-26T10:19:44.156Z,100041.47
2022-09-26T10:22:44.948Z,100042.63
2022-09-26T10:25:25.919Z,100037.56
2022-09-26T10:27:59.178Z,100040.78
2022-09-26T10:30:33.099Z,100035.88
2022-09-26T10:33:05.650Z,100044.66
2022-09-26T10:35:48.193Z,100034.50
2022-09-26T10:38:27.401Z,100034.63
2022-09-26T10:41:06.496Z,100028.44
2022-09-26T10:43:40.109Z,100024.75
2022-09-26T10:46:27.200Z,100024.00
2022-09-26T10:49:23.583Z,100027.38
2022-09-26T10:52:02.315Z,100019.66
2022-09-26T10:54:41.208Z,100022.09
2022-09-26T10:57:19.843Z,100018.63
2022-09-26T10:59:49.351Z,100018.22
2022-09-26T11:02:21.972Z,100014.00
2022-09-26T11:05:23.222Z,100021.94
2022-09-26T11:07:56.726Z,100017.75
2022-09-26T11:10:48.896Z,100018.22
2022-09-26T11:13:23.965Z,100005.69
2022-09-26T11:16:08.853Z,100005.44
2022-09-26T11:18:46.028Z,100006.97
2022-09-26T11:21:38.631Z,100008.22
2022-09-26T11:24:15.834Z,100008.31
2022-09-26T11:27:25.657Z,100006.09
2022-09-26T11:29:56.055Z,100001.44
2022-09-26T11:32:33.540Z,100002.28
2022-09-26T11:35:45.784Z,99986.03
2022-09-26T11:38:39.865Z,99979.41
2022-09-26T11:41:38.497Z,99970.75
2022-09-26T11:44:44.368Z,99968.69
2022-09-26T11:47:52.932Z,99954.13
2022-09-26T11:50:40.084Z,99956.53
2022-09-26T11:53:42.387Z,99945.28
2022-09-26T11:56:15.886Z,99947.06
2022-09-26T11:59:04.749Z,99940.69
2022-09-26T12:02:01.246Z,99937.22
2022-09-26T12:05:05.769Z,99938.88
2022-09-26T12:08:04.604Z,99922.72
2022-09-26T12:10:47.123Z,99920.25
2022-09-26T12:13:17.396Z,99915.19
2022-09-26T12:16:09.949Z,99904.22
2022-09-26T12:18:43.567Z,99910.91
2022-09-26T12:22:05.914Z,99904.47
2022-09-26T12:24:57.578Z,99892.38
2022-09-26T12:27:50.490Z,99891.72
2022-09-26T12:30:24.881Z,99889.00
2022-09-26T12:33:30.549Z,99882.06
2022-09-26T12:36:21.455Z,99878.59
2022-09-26T12:39:07.169Z,99870.41
2022-09-26T12:42:16.509Z,99859.41
2022-09-26T12:44:52.371Z,99850.91
2022-09-26T12:48:01.561Z,99855.47
2022-09-26T12:50:58.420Z,99852.25
2022-09-26T12:53:37.626Z,99856.97
2022-09-26T12:56:09.294Z,99836.41
2022-09-26T12:58:57.808Z,99841.44
2022-09-26T13:01:48.839Z,99838.34
2022-09-26T13:04:32.030Z,99833.22
2022-09-26T13:07:20.939Z,99832.88
2022-09-26T13:09:51.616Z,99821.63
2022-09-26T13:12:49.100Z,99822.50
2022-09-26T13:15:46.451Z,99813.56
2022-09-26T13:18:38.061Z,99815.09
2022-09-26T13:21:13.967Z,99816.34
2022-09-26T13:23:49.763Z,99819.13
2022-09-26T13:26:26.596Z,99810.56
2022-09-26T13:29:17.503Z,99813.78
2022-09-26T13:32:05.776Z,99803.41
2022-09-26T13:34:40.593Z,99799.81
2022-09-26T13:37:22.666Z,99802.03
2022-09-26T13:39:59.097Z,99808.31
2022-09-26T13:42:42.858Z,99807.53
2022-09-26T13:45:30.188Z,99799.34
2022-09-26T13:48:08.029Z,99797.06
2022-09-26T13:50:50.714Z,99800.47
2022-09-26T13:53:44.791Z,99792.75
2022-09-26T13:56:46.887Z,99787.88
2022-09-26T13:59:14.687Z,99775.28
2022-09-26T14:02:19.835Z,99775.72
2022-09-26T14:04:50.903Z,99772.63
2022-09-26T14:08:08.912Z,99769.06
2022-09-26T14:10:39.770Z,99772.00
2022-09-26T14:13:10.029Z,99754.94
2022-09-26T14:15:49.441Z,99754.25
2022-09-26T14:18:44.867Z,99752.75
2022-09-26T14:21:35.806Z,99755.16
2022-09-26T14:24:24.061Z,99746.41
2022-09-26T14:27:03.562Z,99740.69
2022-09-26T14:29:43.983Z,99743.97
2022-09-26T14:32:36.223Z,99741.78
2022-09-26T14:35:23.674Z,99732.56
2022-09-26T14:38:01.277Z,99735.66
2022-09-26T14:40:30.848Z,99735.78
2022-09-26T14:43:05.987Z,99740.47
2022-09-26T14:45:44.399Z,99737.69
2022-09-26T14:48:11.807Z,99733.84
2022-09-26T14:50:50.225Z,99738.03
2022-09-26T14:53:25.141Z,99732.06
2022-09-26T14:56:06.199Z,99737.00
2022-09-26T14:58:47.873Z,99724.47
2022-09-26T15:01:25.434Z,99740.16
2022-09-26T15:04:10.574Z,99735.75
2022-09-26T15:06:51.808Z,99725.03
2022-09-26T15:09:25.495Z,99722.22
2022-09-26T15:12:08.352Z,99721.66
2022-09-26T15:14:49.959Z,99721.41
2022-09-26T15:17:27.583Z,99715.72
2022-09-26T15:19:57.314Z,99718.34
2022-09-26T15:22:27.060Z,99716.66
2022-09-26T15:25:06.555Z,99717.84
2022-09-26T15:27:36.085Z,99720.84
2022-09-26T15:30:18.257Z,99718.16
2022-09-26T15:32:49.174Z,99718.66
2022-09-26T15:35:17.114Z,99723.38
2022-09-26T15:37:45.777Z,99719.91
2022-09-26T15:40:15.751Z,99714.28
2022-09-26T15:42:58.340Z,99708.00
2022-09-26T15:45:35.583Z,99712.97
2022-09-26T15:48:20.740Z,99713.19
2022-09-26T15:50:51.801Z,99712.91
2022-09-26T15:53:33.670Z,99706.66
2022-09-26T15:56:09.696Z,99703.47
2022-09-26T15:59:01.008Z,99704.31
2022-09-26T16:01:30.810Z,99702.06
2022-09-26T16:04:03.197Z,99708.28
2022-09-26T16:06:36.607Z,99709.47
2022-09-26T16:09:06.939Z,99711.94
2022-09-26T16:11:50.112Z,99711.41
2022-09-26T16:14:41.437Z,99713.53
2022-09-26T16:17:37.452Z,99718.66
2022-09-26T16:20:13.931Z,99720.72
2022-09-26T16:22:51.185Z,99721.00
2022-09-26T16:25:18.812Z,99729.25
2022-09-26T16:27:52.378Z,99724.56
2022-09-26T16:30:25.753Z,99720.13
2022-09-26T16:32:54.461Z,99717.41
2022-09-26T16:35:30.021Z,99723.03
2022-09-26T16:38:05.386Z,99715.59
2022-09-26T16:40:34.849Z,99715.38
2022-09-26T16:43:12.578Z,99717.16
2022-09-26T16:46:01.637Z,99713.06
2022-09-26T16:48:42.341Z,99715.97
2022-09-26T16:51:22.043Z,99718.31
2022-09-26T16:53:53.428Z,99718.03
2022-09-26T16:56:23.542Z,99709.78
2022-09-26T16:58:55.600Z,99710.22
2022-09-26T17:01:42.019Z,99709.91
2022-09-26T17:04:21.497Z,99706.41
2022-09-26T17:06:48.855Z,99707.28
2022-09-26T17:09:28.124Z,99722.38
2022-09-26T17:12:14.078Z,99720.00
2022-09-26T17:14:42.610Z,99718.09
2022-09-26T17:17:25.784Z,99722.94
2022-09-26T17:19:59.578Z,99722.50
2022-09-26T17:22:28.378Z,99726.06
2022-09-26T17:24:55.749Z,99722.25
2022-09-26T17:27:30.556Z,99723.41
2022-09-26T17:30:03.488Z,99715.97
2022-09-26T17:32:37.432Z,99710.47
2022-09-26T17:35:14.290Z,99714.00
2022-09-26T17:37:41.898Z,99709.72
2022-09-26T17:40:17.337Z,99715.63
2022-09-26T17:42:45.618Z,99714.47
2022-09-26T17:45:13.248Z,99707.44
2022-09-26T17:47:40.811Z,99704.69
2022-09-26T17:50:17.298Z,99708.69
2022-09-26T17:52:45.207Z,99703.22
2022-09-26T17:55:13.000Z,99706.84
2022-09-26T17:57:41.883Z,99708.09
2022-09-26T18:00:15.811Z,99703.03
2022-09-26T18:02:46.386Z,99701.88
2022-09-26T18:05:30.764Z,99708.56
2022-09-26T18:08:19.736Z,99704.69
2022-09-26T18:10:54.996Z,99704.69
2022-09-26T18:13:26.185Z,99713.38
2022-09-26T18:15:56.111Z,99711.75
2022-09-26T18:18:25.337Z,99706.63
2022-09-26T18:20:54.747Z,99704.63
2022-09-26T18:23:25.976Z,99706.63
2022-09-26T18:25:56.549Z,99710.09
2022-09-26T18:28:23.947Z,99711.31
2022-09-26T18:30:58.092Z,99709.31
2022-09-26T18:33:28.805Z,99701.00
2022-09-26T18:35:57.858Z,99703.75
2022-09-26T18:38:25.388Z,99695.41
2022-09-26T18:41:00.153Z,99698.44
2022-09-26T18:43:39.060Z,99700.28
2022-09-26T18:46:17.763Z,99701.41
2022-09-26T18:48:46.361Z,99702.97
2022-09-26T18:51:14.307Z,99706.72
2022-09-26T18:53:42.048Z,99698.09
2022-09-26T18:56:30.926Z,99708.72
2022-09-26T18:58:58.347Z,99712.59
2022-09-26T19:01:33.076Z,99713.06
2022-09-26T19:04:02.903Z,99714.06
2022-09-26T19:06:40.660Z,99716.56
2022-09-26T19:09:13.692Z,99711.84
2022-09-26T19:11:41.937Z,99719.41
2022-09-26T19:14:24.598Z,99708.47
2022-09-26T19:16:52.739Z,99711.22
2022-09-26T19:19:20.854Z,99710.78
2022-09-26T19:21:51.214Z,99708.44
2022-09-26T19:24:54.312Z,99713.13
2022-09-26T19:27:24.933Z,99698.53
2022-09-26T19:30:02.813Z,99703.19
2022-09-26T19:32:41.882Z,99697.44
2022-09-26T19:35:27.085Z,99700.09
2022-09-26T19:37:54.579Z,99699.13
2022-09-26T19:40:24.690Z,99689.72
2022-09-26T19:42:52.635Z,99681.16
2022-09-26T19:45:20.851Z,99684.41
2022-09-26T19:47:51.899Z,99671.41
2022-09-26T19:50:25.768Z,99667.50
2022-09-26T19:52:55.171Z,99666.75
2022-09-26T19:55:24.813Z,99675.34
2022-09-26T19:58:10.678Z,99678.97
2022-09-26T20:00:41.511Z,99668.66
2022-09-26T20:03:21.304Z,99664.25
2022-09-26T20:05:50.169Z,99669.41
2022-09-26T20:08:22.854Z,99666.66
2022-09-26T20:10:50.858Z,99674.56
2022-09-26T20:13:21.961Z,99671.84
2022-09-26T20:15:49.994Z,99665.09
2022-09-26T20:18:23.997Z,99664.75
2022-09-26T20:20:54.551Z,99660.53
2022-09-26T20:23:25.461Z,99659.22
2022-09-26T20:25:54.444Z,99646.75
2022-09-26T20:28:22.734Z,99651.81
2022-09-26T20:30:54.158Z,99657.00
2022-09-26T20:33:22.902Z,99643.91
2022-09-26T20:36:01.681Z,99649.09
2022-09-26T20:38:40.289Z,99652.84
2022-09-26T20:41:13.481Z,99644.31
2022-09-26T20:43:44.311Z,99633.69
2022-09-26T20:46:12.545Z,99637.34
2022-09-26T20:48:42.930Z,99640.53
2022-09-26T20:51:31.158Z,99641.38
2022-09-26T20:54:02.726Z,99637.47
2022-09-26T20:56:30.236Z,99631.59
2022-09-26T20:58:59.913Z,99626.09
2022-09-26T21:01:28.809Z,99608.41
2022-09-26T21:03:56.218Z,99614.69
2022-09-26T21:06:28.207Z,99621.38
2022-09-26T21:08:55.482Z,99634.34
2022-09-26T21:11:22.922Z,99627.63
2022-09-26T21:13:50.469Z,99627.69
2022-09-26T21:16:20.118Z,99622.13
2022-09-26T21:18:52.517Z,99619.75
2022-09-26T21:21:25.756Z,99638.25
2022-09-26T21:24:06.962Z,99666.97
2022-09-26T21:26:34.545Z,99696.84
2022-09-26T21:29:01.993Z,99700.81
2022-09-26T21:31:34.329Z,99707.47
2022-09-26T21:34:03.334Z,99708.59
2022-09-26T21:36:35.505Z,99709.63
2022-09-26T21:39:03.477Z,99710.69
2022-09-26T21:41:31.075Z,99698.47
2022-09-26T21:44:08.532Z,99694.47
2022-09-26T21:46:36.037Z,99675.22
2022-09-26T21:49:03.484Z,99661.97
2022-09-26T21:51:31.571Z,99671.22
2022-09-26T21:54:23.317Z,99663.50
2022-09-26T21:57:16.889Z,99652.47
2022-09-26T21:59:45.077Z,99652.09
2022-09-26T22:02:12.506Z,99641.13
2022-09-26T22:04:40.320Z,99633.75
2022-09-26T22:07:07.791Z,99626.59
2022-09-26T22:09:37.942Z,99606.66
2022-09-26T22:12:05.765Z,99609.81
2022-09-26T22:14:33.519Z,99600.75
2022-09-26T22:17:00.906Z,99590.09
2022-09-26T22:19:33.231Z,99585.47
2022-09-26T22:22:01.641Z,99576.06
2022-09-26T22:24:29.899Z,99582.31
2022-09-26T22:26:57.292Z,99570.50
2022-09-26T22:29:24.659Z,99569.38
2022-09-26T22:31:52.044Z,99568.22
2022-09-26T22:34:20.841Z,99568.22
2022-09-26T22:36:49.282Z,99553.22
2022-09-26T22:39:16.745Z,99562.66
2022-09-26T22:41:44.277Z,99553.56
2022-09-26T22:44:11.643Z,99553.59
2022-09-26T22:46:39.079Z,99537.94
2022-09-26T22:49:06.538Z,99546.97
2022-09-26T22:51:34.534Z,99542.16
2022-09-26T22:54:01.938Z,99530.38
2022-09-26T22:56:29.633Z,99523.84
2022-09-26T22:59:01.546Z,99524.56
2022-09-26T23:01:29.112Z,99520.25
2022-09-26T23:04:00.403Z,99524.56
2022-09-26T23:06:28.140Z,99523.28
2022-09-26T23:08:55.918Z,99511.50
2022-09-26T23:11:24.311Z,99520.06
2022-09-26T23:13:52.682Z,99509.84
2022-09-26T23:16:22.474Z,99500.47
2022-09-26T23:18:51.639Z,99499.59
2022-09-26T23:21:21.851Z,99502.28
2022-09-26T23:23:51.566Z,99499.22
2022-09-26T23:26:24.695Z,99493.81
2022-09-26T23:28:56.144Z,99499.72
2022-09-26T23:31:25.159Z,99491.81
2022-09-26T23:33:53.958Z,99483.56
2022-09-26T23:36:21.748Z,99482.41
2022-09-26T23:38:49.947Z,99472.91
2022-09-26T23:41:17.979Z,99470.97
2022-09-26T23:43:46.503Z,99460.03
2022-09-26T23:46:14.194Z,99456.50
2022-09-26T23:48:42.238Z,99460.03
2022-09-26T23:51:09.698Z,99462.34
2022-09-26T23:53:37.104Z,99464.72
2022-09-26T23:56:04.699Z,99461.19
2022-09-26T23:58:32.518Z,99467.09
